sensor_id;sensor_type;location;lat;lon;timestamp;temperature;humidity
25302;DHT22;13243;50.888;4.724;2023-04-01T00:01:08;10.10;99.90
25302;DHT22;13243;50.888;4.724;2023-04-01T00:06:13;10.10;99.90
25302;DHT22;13243;50.888;4.724;2023-04-01T00:11:16;10.10;99.90
25302;DHT22;13243;50.888;4.724;2023-04-01T00:16:21;10.10;99.90
25302;DHT22;13243;50.888;4.724;2023-04-01T00:21:23;10.10;99.90
25302;DHT22;13243;50.888;4.724;2023-04-01T00:26:25;10.00;99.90
25302;DHT22;13243;50.888;4.724;2023-04-01T00:31:28;10.10;99.90
25302;DHT22;13243;50.888;4.724;2023-04-01T00:36:30;10.10;99.90
25302;DHT22;13243;50.888;4.724;2023-04-01T00:41:32;10.10;99.90
25302;DHT22;13243;50.888;4.724;2023-04-01T00:46:34;10.10;99.90
25302;DHT22;13243;50.888;4.724;2023-04-01T00:51:37;10.10;99.90
25302;DHT22;13243;50.888;4.724;2023-04-01T00:56:45;10.00;99.90
25302;DHT22;13243;50.888;4.724;2023-04-01T01:01:51;10.00;99.90
25302;DHT22;13243;50.888;4.724;2023-04-01T01:12:18;9.90;99.90
25302;DHT22;13243;50.888;4.724;2023-04-01T01:17:37;9.90;99.90
25302;DHT22;13243;50.888;4.724;2023-04-01T01:28:49;10.00;99.90
25302;DHT22;13243;50.888;4.724;2023-04-01T01:39:34;9.90;99.90
25302;DHT22;13243;50.888;4.724;2023-04-01T01:44:37;9.90;99.90
25302;DHT22;13243;50.888;4.724;2023-04-01T01:49:41;9.90;99.90
25302;DHT22;13243;50.888;4.724;2023-04-01T01:55:02;9.90;99.90
25302;DHT22;13243;50.888;4.724;2023-04-01T02:00:09;9.90;99.90
25302;DHT22;13243;50.888;4.724;2023-04-01T02:05:19;9.90;99.90
25302;DHT22;13243;50.888;4.724;2023-04-01T02:10:22;9.90;99.90
25302;DHT22;13243;50.888;4.724;2023-04-01T02:15:28;10.00;99.90
25302;DHT22;13243;50.888;4.724;2023-04-01T02:20:33;9.90;99.90
25302;DHT22;13243;50.888;4.724;2023-04-01T02:25:37;9.90;99.90
25302;DHT22;13243;50.888;4.724;2023-04-01T02:30:41;9.80;99.90
25302;DHT22;13243;50.888;4.724;2023-04-01T02:35:44;9.80;99.90
25302;DHT22;13243;50.888;4.724;2023-04-01T02:40:49;9.70;99.90
25302;DHT22;13243;50.888;4.724;2023-04-01T02:45:51;9.70;99.90
25302;DHT22;13243;50.888;4.724;2023-04-01T02:50:53;9.70;99.90
25302;DHT22;13243;50.888;4.724;2023-04-01T02:55:55;9.70;99.90
25302;DHT22;13243;50.888;4.724;2023-04-01T03:00:57;9.70;99.90
25302;DHT22;13243;50.888;4.724;2023-04-01T03:06:05;9.70;99.90
25302;DHT22;13243;50.888;4.724;2023-04-01T03:11:09;9.70;99.90
25302;DHT22;13243;50.888;4.724;2023-04-01T03:16:11;9.70;99.90
25302;DHT22;13243;50.888;4.724;2023-04-01T03:21:21;9.70;99.90
25302;DHT22;13243;50.888;4.724;2023-04-01T03:26:22;9.60;99.90
25302;DHT22;13243;50.888;4.724;2023-04-01T03:31:24;9.60;99.90
25302;DHT22;13243;50.888;4.724;2023-04-01T03:36:27;9.60;99.90
25302;DHT22;13243;50.888;4.724;2023-04-01T03:41:28;9.70;99.90
25302;DHT22;13243;50.888;4.724;2023-04-01T03:46:32;9.70;99.90
25302;DHT22;13243;50.888;4.724;2023-04-01T03:51:34;9.70;99.90
25302;DHT22;13243;50.888;4.724;2023-04-01T03:56:36;9.70;99.90
25302;DHT22;13243;50.888;4.724;2023-04-01T04:01:38;9.70;99.90
25302;DHT22;13243;50.888;4.724;2023-04-01T04:06:40;9.70;99.90
25302;DHT22;13243;50.888;4.724;2023-04-01T04:11:42;9.70;99.90
25302;DHT22;13243;50.888;4.724;2023-04-01T04:16:44;9.60;99.90
25302;DHT22;13243;50.888;4.724;2023-04-01T04:21:46;9.70;99.90
25302;DHT22;13243;50.888;4.724;2023-04-01T04:26:47;9.70;99.90
25302;DHT22;13243;50.888;4.724;2023-04-01T04:31:49;9.70;99.90
25302;DHT22;13243;50.888;4.724;2023-04-01T04:36:51;9.60;99.90
25302;DHT22;13243;50.888;4.724;2023-04-01T04:41:53;9.50;99.90
25302;DHT22;13243;50.888;4.724;2023-04-01T04:46:55;9.60;99.90
25302;DHT22;13243;50.888;4.724;2023-04-01T04:51:59;9.50;99.90
25302;DHT22;13243;50.888;4.724;2023-04-01T04:57:01;9.50;99.90
25302;DHT22;13243;50.888;4.724;2023-04-01T05:02:02;9.50;99.90
25302;DHT22;13243;50.888;4.724;2023-04-01T05:07:04;9.50;99.90
25302;DHT22;13243;50.888;4.724;2023-04-01T05:12:06;9.40;99.90
25302;DHT22;13243;50.888;4.724;2023-04-01T05:17:10;9.50;99.90
25302;DHT22;13243;50.888;4.724;2023-04-01T05:22:12;9.50;99.90
25302;DHT22;13243;50.888;4.724;2023-04-01T05:27:14;9.50;99.90
25302;DHT22;13243;50.888;4.724;2023-04-01T05:32:16;9.50;99.90
25302;DHT22;13243;50.888;4.724;2023-04-01T05:37:19;9.50;99.90
25302;DHT22;13243;50.888;4.724;2023-04-01T05:42:21;9.50;99.90
25302;DHT22;13243;50.888;4.724;2023-04-01T05:47:23;9.50;99.90
25302;DHT22;13243;50.888;4.724;2023-04-01T05:52:25;9.50;99.90
25302;DHT22;13243;50.888;4.724;2023-04-01T05:57:27;9.50;99.90
25302;DHT22;13243;50.888;4.724;2023-04-01T06:02:28;9.50;99.90
25302;DHT22;13243;50.888;4.724;2023-04-01T06:07:30;9.50;99.90
25302;DHT22;13243;50.888;4.724;2023-04-01T06:12:40;9.50;99.90
25302;DHT22;13243;50.888;4.724;2023-04-01T06:23:21;9.50;99.90
25302;DHT22;13243;50.888;4.724;2023-04-01T06:33:52;9.50;99.90
25302;DHT22;13243;50.888;4.724;2023-04-01T06:44:40;9.50;99.90
25302;DHT22;13243;50.888;4.724;2023-04-01T07:00:35;9.50;99.90
25302;DHT22;13243;50.888;4.724;2023-04-01T07:05:37;9.50;99.90
25302;DHT22;13243;50.888;4.724;2023-04-01T07:10:48;9.50;99.90
25302;DHT22;13243;50.888;4.724;2023-04-01T07:16:11;9.50;99.90
25302;DHT22;13243;50.888;4.724;2023-04-01T07:21:29;9.50;99.90
25302;DHT22;13243;50.888;4.724;2023-04-01T07:26:34;9.50;99.90
25302;DHT22;13243;50.888;4.724;2023-04-01T07:32:04;9.50;99.90
25302;DHT22;13243;50.888;4.724;2023-04-01T07:37:42;9.50;99.90
25302;DHT22;13243;50.888;4.724;2023-04-01T07:48:33;9.40;99.90
25302;DHT22;13243;50.888;4.724;2023-04-01T07:53:46;9.50;99.90
25302;DHT22;13243;50.888;4.724;2023-04-01T07:59:11;9.60;99.90
25302;DHT22;13243;50.888;4.724;2023-04-01T08:24:55;9.80;99.90
25302;DHT22;13243;50.888;4.724;2023-04-01T08:30:24;9.70;99.90
25302;DHT22;13243;50.888;4.724;2023-04-01T08:35:28;9.70;99.90
25302;DHT22;13243;50.888;4.724;2023-04-01T08:46:06;9.90;99.90
25302;DHT22;13243;50.888;4.724;2023-04-01T08:57:36;9.80;99.90
25302;DHT22;13243;50.888;4.724;2023-04-01T09:25:06;10.00;99.90
25302;DHT22;13243;50.888;4.724;2023-04-01T09:36:04;10.00;99.90
25302;DHT22;13243;50.888;4.724;2023-04-01T09:41:26;10.10;99.90
25302;DHT22;13243;50.888;4.724;2023-04-01T09:47:16;10.20;99.90
25302;DHT22;13243;50.888;4.724;2023-04-01T09:52:39;10.30;99.90
25302;DHT22;13243;50.888;4.724;2023-04-01T10:03:41;10.20;99.90
25302;DHT22;13243;50.888;4.724;2023-04-01T10:31:16;10.40;99.90
25302;DHT22;13243;50.888;4.724;2023-04-01T11:03:00;11.10;99.90
25302;DHT22;13243;50.888;4.724;2023-04-01T11:14:06;10.90;99.90
25302;DHT22;13243;50.888;4.724;2023-04-01T11:40:18;10.70;99.90
25302;DHT22;13243;50.888;4.724;2023-04-01T11:45:49;10.50;99.90
25302;DHT22;13243;50.888;4.724;2023-04-01T11:56:45;10.80;99.90
25302;DHT22;13243;50.888;4.724;2023-04-01T12:02:03;10.70;99.90
25302;DHT22;13243;50.888;4.724;2023-04-01T12:45:32;11.00;99.90
25302;DHT22;13243;50.888;4.724;2023-04-01T12:55:45;10.60;99.90
25302;DHT22;13243;50.888;4.724;2023-04-01T13:11:46;10.70;99.90
25302;DHT22;13243;50.888;4.724;2023-04-01T13:22:11;10.50;99.90
25302;DHT22;13243;50.888;4.724;2023-04-01T13:27:30;10.50;99.90
25302;DHT22;13243;50.888;4.724;2023-04-01T13:38:01;10.40;99.90
25302;DHT22;13243;50.888;4.724;2023-04-01T13:43:16;10.50;99.90
25302;DHT22;13243;50.888;4.724;2023-04-01T13:48:42;10.50;99.90
25302;DHT22;13243;50.888;4.724;2023-04-01T13:54:34;10.50;99.90
25302;DHT22;13243;50.888;4.724;2023-04-01T14:04:44;10.50;99.90
25302;DHT22;13243;50.888;4.724;2023-04-01T14:10:02;10.50;99.90
25302;DHT22;13243;50.888;4.724;2023-04-01T14:58:23;11.00;99.90
25302;DHT22;13243;50.888;4.724;2023-04-01T15:24:47;11.10;99.90
25302;DHT22;13243;50.888;4.724;2023-04-01T15:40:48;10.40;99.90
25302;DHT22;13243;50.888;4.724;2023-04-01T15:46:17;10.50;99.90
25302;DHT22;13243;50.888;4.724;2023-04-01T15:51:43;10.50;99.90
25302;DHT22;13243;50.888;4.724;2023-04-01T16:02:32;10.40;99.90
25302;DHT22;13243;50.888;4.724;2023-04-01T16:34:21;10.10;99.90
25302;DHT22;13243;50.888;4.724;2023-04-01T16:50:42;9.70;99.90
25302;DHT22;13243;50.888;4.724;2023-04-01T16:55:55;9.70;99.90
25302;DHT22;13243;50.888;4.724;2023-04-01T17:01:11;9.60;99.90
25302;DHT22;13243;50.888;4.724;2023-04-01T17:06:45;9.70;99.90
25302;DHT22;13243;50.888;4.724;2023-04-01T17:28:19;9.60;99.90
25302;DHT22;13243;50.888;4.724;2023-04-01T18:01:40;9.40;99.90
25302;DHT22;13243;50.888;4.724;2023-04-01T18:12:10;9.40;99.90
25302;DHT22;13243;50.888;4.724;2023-04-01T18:38:57;9.50;99.90
25302;DHT22;13243;50.888;4.724;2023-04-01T18:44:16;9.50;99.90
25302;DHT22;13243;50.888;4.724;2023-04-01T18:50:11;9.50;99.90
25302;DHT22;13243;50.888;4.724;2023-04-01T18:55:22;9.50;99.90
25302;DHT22;13243;50.888;4.724;2023-04-01T19:00:40;9.50;99.90
25302;DHT22;13243;50.888;4.724;2023-04-01T19:05:48;9.50;99.90
25302;DHT22;13243;50.888;4.724;2023-04-01T19:21:27;9.50;99.90
25302;DHT22;13243;50.888;4.724;2023-04-01T19:42:53;9.30;99.90
25302;DHT22;13243;50.888;4.724;2023-04-01T19:48:05;9.40;99.90
25302;DHT22;13243;50.888;4.724;2023-04-01T19:53:48;9.40;99.90
25302;DHT22;13243;50.888;4.724;2023-04-01T19:59:05;9.40;99.90
25302;DHT22;13243;50.888;4.724;2023-04-01T20:04:37;9.40;99.90
25302;DHT22;13243;50.888;4.724;2023-04-01T20:14:57;9.30;99.90
25302;DHT22;13243;50.888;4.724;2023-04-01T20:25:25;9.20;99.90
25302;DHT22;13243;50.888;4.724;2023-04-01T20:30:44;9.30;99.90
25302;DHT22;13243;50.888;4.724;2023-04-01T20:41:23;9.40;99.90
25302;DHT22;13243;50.888;4.724;2023-04-01T20:46:44;9.40;99.90
25302;DHT22;13243;50.888;4.724;2023-04-01T20:52:02;9.40;99.90
25302;DHT22;13243;50.888;4.724;2023-04-01T21:12:39;9.50;99.90
25302;DHT22;13243;50.888;4.724;2023-04-01T21:23:31;9.60;99.90
25302;DHT22;13243;50.888;4.724;2023-04-01T21:39:48;9.60;99.90
25302;DHT22;13243;50.888;4.724;2023-04-01T21:44:56;9.60;99.90
25302;DHT22;13243;50.888;4.724;2023-04-01T22:06:55;9.60;99.90
25302;DHT22;13243;50.888;4.724;2023-04-01T22:28:09;9.50;99.90
25302;DHT22;13243;50.888;4.724;2023-04-01T22:44:26;9.40;99.90
25302;DHT22;13243;50.888;4.724;2023-04-01T22:49:38;9.40;99.90
25302;DHT22;13243;50.888;4.724;2023-04-01T22:54:50;9.40;99.90
25302;DHT22;13243;50.888;4.724;2023-04-01T23:00:20;9.40;99.90
25302;DHT22;13243;50.888;4.724;2023-04-01T23:05:21;9.30;99.90
25302;DHT22;13243;50.888;4.724;2023-04-01T23:10:43;9.30;99.90
25302;DHT22;13243;50.888;4.724;2023-04-01T23:15:51;9.30;99.90
25302;DHT22;13243;50.888;4.724;2023-04-01T23:21:13;9.20;99.90
25302;DHT22;13243;50.888;4.724;2023-04-01T23:26:38;9.20;99.90
25302;DHT22;13243;50.888;4.724;2023-04-01T23:31:42;9.00;99.90
25302;DHT22;13243;50.888;4.724;2023-04-01T23:36:51;9.00;99.90
25302;DHT22;13243;50.888;4.724;2023-04-01T23:41:58;9.00;99.90
25302;DHT22;13243;50.888;4.724;2023-04-01T23:47:02;9.00;99.90
25302;DHT22;13243;50.888;4.724;2023-04-01T23:52:14;9.00;99.90
25302;DHT22;13243;50.888;4.724;2023-04-01T23:57:23;8.90;99.90
